sensor_id;sensor_type;location;lat;lon;timestamp;pressure;altitude;pressure_sealevel;temperature;humidity
60212;BME280;46079;48.686;15.598;2022-11-20T00:01:15;99540.47;;;18.16;50.39
60212;BME280;46079;48.686;15.598;2022-11-20T00:03:41;99543.09;;;18.16;50.50
60212;BME280;46079;48.686;15.598;2022-11-20T00:06:09;99537.84;;;18.16;50.33
60212;BME280;46079;48.686;15.598;2022-11-20T00:08:35;99530.00;;;18.16;50.51
60212;BME280;46079;48.686;15.598;2022-11-20T00:11:08;99525.59;;;18.17;50.35
60212;BME280;46079;48.686;15.598;2022-11-20T00:13:34;99522.16;;;18.16;50.51
60212;BME280;46079;48.686;15.598;2022-11-20T00:16:01;99516.09;;;18.16;50.29
60212;BME280;46079;48.686;15.598;2022-11-20T00:18:27;99502.16;;;18.15;50.56
60212;BME280;46079;48.686;15.598;2022-11-20T00:20:52;99514.31;;;18.16;50.50
60212;BME280;46079;48.686;15.598;2022-11-20T00:23:18;99502.16;;;18.15;50.51
60212;BME280;46079;48.686;15.598;2022-11-20T00:25:44;99495.97;;;18.16;50.38
60212;BME280;46079;48.686;15.598;2022-11-20T00:28:09;99506.44;;;18.16;50.36
60212;BME280;46079;48.686;15.598;2022-11-20T00:30:34;99516.09;;;18.16;50.36
60212;BME280;46079;48.686;15.598;2022-11-20T00:33:00;99512.50;;;18.17;50.56
60212;BME280;46079;48.686;15.598;2022-11-20T00:35:25;99505.63;;;18.16;50.54
60212;BME280;46079;48.686;15.598;2022-11-20T00:37:51;99507.28;;;18.17;50.43
60212;BME280;46079;48.686;15.598;2022-11-20T00:40:16;99516.91;;;18.16;50.47
60212;BME280;46079;48.686;15.598;2022-11-20T00:42:42;99524.78;;;18.16;50.41
60212;BME280;46079;48.686;15.598;2022-11-20T00:45:07;99531.81;;;18.16;50.48
60212;BME280;46079;48.686;15.598;2022-11-20T00:47:33;99532.47;;;18.18;49.95
60212;BME280;46079;48.686;15.598;2022-11-20T00:49:58;99531.66;;;18.17;50.43
60212;BME280;46079;48.686;15.598;2022-11-20T00:52:24;99543.91;;;18.17;50.34
60212;BME280;46079;48.686;15.598;2022-11-20T00:54:49;99556.19;;;18.16;50.47
60212;BME280;46079;48.686;15.598;2022-11-20T00:57:15;99563.06;;;18.17;50.24
60212;BME280;46079;48.686;15.598;2022-11-20T00:59:40;99558.78;;;18.16;50.43
60212;BME280;46079;48.686;15.598;2022-11-20T01:02:05;99567.34;;;18.18;50.42
60212;BME280;46079;48.686;15.598;2022-11-20T01:04:31;99572.59;;;18.18;50.54
60212;BME280;46079;48.686;15.598;2022-11-20T01:06:56;99569.97;;;18.18;50.41
60212;BME280;46079;48.686;15.598;2022-11-20T01:09:21;99575.22;;;18.18;50.27
60212;BME280;46079;48.686;15.598;2022-11-20T01:11:47;99569.00;;;18.19;50.58
60212;BME280;46079;48.686;15.598;2022-11-20T01:14:15;99572.44;;;18.20;50.46
60212;BME280;46079;48.686;15.598;2022-11-20T01:16:49;99575.88;;;18.20;50.38
60212;BME280;46079;48.686;15.598;2022-11-20T01:19:20;99574.25;;;18.19;50.40
60212;BME280;46079;48.686;15.598;2022-11-20T01:21:48;99563.78;;;18.19;50.29
60212;BME280;46079;48.686;15.598;2022-11-20T01:24:17;99569.00;;;18.19;50.44
60212;BME280;46079;48.686;15.598;2022-11-20T01:26:43;99575.75;;;18.22;50.31
60212;BME280;46079;48.686;15.598;2022-11-20T01:29:14;99570.66;;;18.20;50.43
60212;BME280;46079;48.686;15.598;2022-11-20T01:31:40;99576.75;;;18.21;50.40
60212;BME280;46079;48.686;15.598;2022-11-20T01:34:09;99571.34;;;18.22;50.42
60212;BME280;46079;48.686;15.598;2022-11-20T01:36:36;99575.88;;;18.20;50.34
60212;BME280;46079;48.686;15.598;2022-11-20T01:39:10;99573.16;;;18.22;50.29
60212;BME280;46079;48.686;15.598;2022-11-20T01:41:35;99571.22;;;18.24;50.40
60212;BME280;46079;48.686;15.598;2022-11-20T01:44:39;99566.94;;;18.23;50.34
60212;BME280;46079;48.686;15.598;2022-11-20T01:47:08;99560.75;;;18.24;50.19
60212;BME280;46079;48.686;15.598;2022-11-20T01:49:39;99554.66;;;18.23;50.22
60212;BME280;46079;48.686;15.598;2022-11-20T01:52:15;99561.59;;;18.25;50.34
60212;BME280;46079;48.686;15.598;2022-11-20T01:55:09;99552.91;;;18.24;50.23
60212;BME280;46079;48.686;15.598;2022-11-20T01:57:38;99550.28;;;18.24;50.21
60212;BME280;46079;48.686;15.598;2022-11-20T02:00:07;99546.81;;;18.23;50.34
60212;BME280;46079;48.686;15.598;2022-11-20T02:02:34;99554.56;;;18.25;50.07
60212;BME280;46079;48.686;15.598;2022-11-20T02:05:04;99558.00;;;18.26;50.36
60212;BME280;46079;48.686;15.598;2022-11-20T02:07:34;99561.59;;;18.25;50.31
60212;BME280;46079;48.686;15.598;2022-11-20T02:10:00;99563.22;;;18.26;50.29
60212;BME280;46079;48.686;15.598;2022-11-20T02:12:26;99571.91;;;18.26;50.34
60212;BME280;46079;48.686;15.598;2022-11-20T02:15:09;99565.72;;;18.27;50.34
60212;BME280;46079;48.686;15.598;2022-11-20T02:17:35;99559.66;;;18.27;50.49
60212;BME280;46079;48.686;15.598;2022-11-20T02:20:00;99567.38;;;18.28;50.13
60212;BME280;46079;48.686;15.598;2022-11-20T02:22:35;99563.94;;;18.28;50.24
60212;BME280;46079;48.686;15.598;2022-11-20T02:25:04;99561.31;;;18.28;50.33
60212;BME280;46079;48.686;15.598;2022-11-20T02:27:32;99564.75;;;18.28;50.13
60212;BME280;46079;48.686;15.598;2022-11-20T02:30:02;99570.00;;;18.28;50.19
60212;BME280;46079;48.686;15.598;2022-11-20T02:32:33;99562.13;;;18.28;50.25
60212;BME280;46079;48.686;15.598;2022-11-20T02:37:44;99558.56;;;18.29;50.39
60212;BME280;46079;48.686;15.598;2022-11-20T02:40:11;99574.13;;;18.31;50.39
60212;BME280;46079;48.686;15.598;2022-11-20T02:42:37;99570.69;;;18.30;50.25
60212;BME280;46079;48.686;15.598;2022-11-20T02:45:04;99567.09;;;18.31;50.30
60212;BME280;46079;48.686;15.598;2022-11-20T02:47:30;99561.88;;;18.31;50.29
60212;BME280;46079;48.686;15.598;2022-11-20T02:49:56;99568.78;;;18.32;50.32
60212;BME280;46079;48.686;15.598;2022-11-20T02:52:21;99562.69;;;18.32;50.35
60212;BME280;46079;48.686;15.598;2022-11-20T02:54:47;99548.78;;;18.31;50.03
60212;BME280;46079;48.686;15.598;2022-11-20T02:57:12;99541.75;;;18.32;50.13
60212;BME280;46079;48.686;15.598;2022-11-20T02:59:38;99552.22;;;18.32;50.22
60212;BME280;46079;48.686;15.598;2022-11-20T03:02:03;99542.59;;;18.32;50.17
60212;BME280;46079;48.686;15.598;2022-11-20T03:04:30;99529.50;;;18.32;50.36
60212;BME280;46079;48.686;15.598;2022-11-20T03:06:56;99532.94;;;18.33;50.20
60212;BME280;46079;48.686;15.598;2022-11-20T03:09:21;99535.41;;;18.34;50.20
60212;BME280;46079;48.686;15.598;2022-11-20T03:11:47;99524.13;;;18.34;50.12
60212;BME280;46079;48.686;15.598;2022-11-20T03:14:13;99513.66;;;18.34;50.27
60212;BME280;46079;48.686;15.598;2022-11-20T03:16:38;99513.53;;;18.35;50.31
60212;BME280;46079;48.686;15.598;2022-11-20T03:19:03;99509.13;;;18.36;50.34
60212;BME280;46079;48.686;15.598;2022-11-20T03:21:29;99502.91;;;18.37;50.30
60212;BME280;46079;48.686;15.598;2022-11-20T03:23:55;99503.88;;;18.36;50.30
60212;BME280;46079;48.686;15.598;2022-11-20T03:26:23;99499.47;;;18.36;50.21
60212;BME280;46079;48.686;15.598;2022-11-20T03:29:02;99498.47;;;18.37;50.28
60212;BME280;46079;48.686;15.598;2022-11-20T03:31:31;99513.25;;;18.38;50.18
60212;BME280;46079;48.686;15.598;2022-11-20T03:33:57;99509.81;;;18.38;50.38
60212;BME280;46079;48.686;15.598;2022-11-20T03:36:24;99517.66;;;18.38;50.11
60212;BME280;46079;48.686;15.598;2022-11-20T03:38:50;99523.56;;;18.40;50.20
60212;BME280;46079;48.686;15.598;2022-11-20T03:41:21;99508.00;;;18.38;50.18
60212;BME280;46079;48.686;15.598;2022-11-20T03:43:51;99507.03;;;18.39;50.30
60212;BME280;46079;48.686;15.598;2022-11-20T03:46:17;99506.22;;;18.39;50.28
60212;BME280;46079;48.686;15.598;2022-11-20T03:48:43;99509.53;;;18.41;50.26
60212;BME280;46079;48.686;15.598;2022-11-20T03:53:36;99514.78;;;18.41;50.30
60212;BME280;46079;48.686;15.598;2022-11-20T03:56:01;99519.03;;;18.42;50.15
60212;BME280;46079;48.686;15.598;2022-11-20T03:58:27;99505.94;;;18.42;50.19
60212;BME280;46079;48.686;15.598;2022-11-20T04:00:52;99514.63;;;18.42;50.14
60212;BME280;46079;48.686;15.598;2022-11-20T04:03:18;99505.00;;;18.43;50.37
60212;BME280;46079;48.686;15.598;2022-11-20T04:05:43;99496.28;;;18.42;50.24
60212;BME280;46079;48.686;15.598;2022-11-20T04:08:09;99497.97;;;18.43;50.16
60212;BME280;46079;48.686;15.598;2022-11-20T04:10:34;99487.50;;;18.43;50.08
60212;BME280;46079;48.686;15.598;2022-11-20T04:13:00;99490.94;;;18.44;50.24
60212;BME280;46079;48.686;15.598;2022-11-20T04:15:34;99483.91;;;18.44;50.02
60212;BME280;46079;48.686;15.598;2022-11-20T04:18:00;99492.56;;;18.45;50.28
60212;BME280;46079;48.686;15.598;2022-11-20T04:20:25;99496.03;;;18.45;50.13
60212;BME280;46079;48.686;15.598;2022-11-20T04:22:53;99492.47;;;18.47;50.29
60212;BME280;46079;48.686;15.598;2022-11-20T04:25:19;99480.31;;;18.45;50.29
60212;BME280;46079;48.686;15.598;2022-11-20T04:27:44;99478.53;;;18.46;50.18
60212;BME280;46079;48.686;15.598;2022-11-20T04:30:10;99475.94;;;18.46;50.21
60212;BME280;46079;48.686;15.598;2022-11-20T04:32:36;99471.50;;;18.47;50.23
60212;BME280;46079;48.686;15.598;2022-11-20T04:35:01;99469.72;;;18.47;50.20
60212;BME280;46079;48.686;15.598;2022-11-20T04:37:27;99460.88;;;18.48;50.35
60212;BME280;46079;48.686;15.598;2022-11-20T04:39:52;99458.25;;;18.48;50.23
60212;BME280;46079;48.686;15.598;2022-11-20T04:42:18;99453.03;;;18.48;50.10
60212;BME280;46079;48.686;15.598;2022-11-20T04:44:56;99463.50;;;18.48;50.14
60212;BME280;46079;48.686;15.598;2022-11-20T04:47:21;99449.59;;;18.48;50.26
60212;BME280;46079;48.686;15.598;2022-11-20T04:49:47;99436.50;;;18.48;50.19
60212;BME280;46079;48.686;15.598;2022-11-20T04:52:12;99439.81;;;18.50;50.19
60212;BME280;46079;48.686;15.598;2022-11-20T04:54:38;99444.22;;;18.49;50.20
60212;BME280;46079;48.686;15.598;2022-11-20T04:57:03;99435.38;;;18.50;50.29
60212;BME280;46079;48.686;15.598;2022-11-20T04:59:29;99441.44;;;18.51;50.13
60212;BME280;46079;48.686;15.598;2022-11-20T05:01:54;99442.31;;;18.51;50.17
60212;BME280;46079;48.686;15.598;2022-11-20T05:04:20;99439.69;;;18.51;50.13
60212;BME280;46079;48.686;15.598;2022-11-20T05:06:45;99444.75;;;18.53;50.07
60212;BME280;46079;48.686;15.598;2022-11-20T05:09:12;99436.09;;;18.52;50.21
60212;BME280;46079;48.686;15.598;2022-11-20T05:11:37;99439.41;;;18.54;50.18
60212;BME280;46079;48.686;15.598;2022-11-20T05:14:03;99442.97;;;18.53;50.15
60212;BME280;46079;48.686;15.598;2022-11-20T05:16:28;99437.59;;;18.55;50.43
60212;BME280;46079;48.686;15.598;2022-11-20T05:18:54;99438.44;;;18.55;50.01
60212;BME280;46079;48.686;15.598;2022-11-20T05:21:21;99439.25;;;18.56;50.12
60212;BME280;46079;48.686;15.598;2022-11-20T05:23:46;99439.25;;;18.56;50.35
60212;BME280;46079;48.686;15.598;2022-11-20T05:26:14;99442.69;;;18.56;50.20
60212;BME280;46079;48.686;15.598;2022-11-20T05:28:40;99455.78;;;18.56;50.21
60212;BME280;46079;48.686;15.598;2022-11-20T05:31:08;99457.47;;;18.57;50.22
60212;BME280;46079;48.686;15.598;2022-11-20T05:33:34;99451.41;;;18.57;50.25
60212;BME280;46079;48.686;15.598;2022-11-20T05:36:01;99454.84;;;18.57;50.39
60212;BME280;46079;48.686;15.598;2022-11-20T05:38:27;99463.53;;;18.58;50.12
60212;BME280;46079;48.686;15.598;2022-11-20T05:40:52;99468.75;;;18.58;50.40
60212;BME280;46079;48.686;15.598;2022-11-20T05:43:18;99481.72;;;18.59;50.17
60212;BME280;46079;48.686;15.598;2022-11-20T05:45:51;99466.00;;;18.59;50.05
60212;BME280;46079;48.686;15.598;2022-11-20T05:48:17;99471.09;;;18.61;50.22
60212;BME280;46079;48.686;15.598;2022-11-20T05:50:42;99466.84;;;18.60;50.16
60212;BME280;46079;48.686;15.598;2022-11-20T05:53:08;99467.66;;;18.60;50.32
60212;BME280;46079;48.686;15.598;2022-11-20T05:55:33;99479.78;;;18.61;50.09
60212;BME280;46079;48.686;15.598;2022-11-20T05:57:58;99485.03;;;18.61;49.98
60212;BME280;46079;48.686;15.598;2022-11-20T06:00:24;99469.31;;;18.61;50.31
60212;BME280;46079;48.686;15.598;2022-11-20T06:02:49;99467.50;;;18.62;50.02
60212;BME280;46079;48.686;15.598;2022-11-20T06:05:15;99473.59;;;18.62;49.96
60212;BME280;46079;48.686;15.598;2022-11-20T06:07:40;99465.75;;;18.62;50.15
60212;BME280;46079;48.686;15.598;2022-11-20T06:10:06;99472.63;;;18.63;50.20
60212;BME280;46079;48.686;15.598;2022-11-20T06:12:32;99475.25;;;18.63;50.18
60212;BME280;46079;48.686;15.598;2022-11-20T06:14:58;99478.69;;;18.64;50.18
60212;BME280;46079;48.686;15.598;2022-11-20T06:17:24;99484.75;;;18.64;50.12
60212;BME280;46079;48.686;15.598;2022-11-20T06:19:49;99495.22;;;18.64;50.41
60212;BME280;46079;48.686;15.598;2022-11-20T06:22:14;99490.84;;;18.65;50.16
60212;BME280;46079;48.686;15.598;2022-11-20T06:24:40;99494.28;;;18.65;50.15
60212;BME280;46079;48.686;15.598;2022-11-20T06:27:05;99489.03;;;18.65;50.26
60212;BME280;46079;48.686;15.598;2022-11-20T06:29:31;99495.91;;;18.66;50.11
60212;BME280;46079;48.686;15.598;2022-11-20T06:31:56;99499.50;;;18.65;50.34
60212;BME280;46079;48.686;15.598;2022-11-20T06:34:21;99501.16;;;18.66;50.28
60212;BME280;46079;48.686;15.598;2022-11-20T06:36:47;99498.53;;;18.66;50.41
60212;BME280;46079;48.686;15.598;2022-11-20T06:39:12;99510.66;;;18.67;50.32
60212;BME280;46079;48.686;15.598;2022-11-20T06:41:37;99514.97;;;18.69;49.99
60212;BME280;46079;48.686;15.598;2022-11-20T06:44:04;99521.03;;;18.69;50.32
60212;BME280;46079;48.686;15.598;2022-11-20T06:46:31;99522.81;;;18.69;50.26
60212;BME280;46079;48.686;15.598;2022-11-20T06:48:56;99527.22;;;18.68;50.42
60212;BME280;46079;48.686;15.598;2022-11-20T06:51:23;99520.19;;;18.69;50.25
60212;BME280;46079;48.686;15.598;2022-11-20T06:53:49;99528.06;;;18.69;50.06
60212;BME280;46079;48.686;15.598;2022-11-20T06:56:14;99528.88;;;18.69;50.33
60212;BME280;46079;48.686;15.598;2022-11-20T06:58:40;99540.19;;;18.70;49.97
60212;BME280;46079;48.686;15.598;2022-11-20T07:01:09;99539.34;;;18.69;50.32
60212;BME280;46079;48.686;15.598;2022-11-20T07:03:35;99541.84;;;18.71;50.34
60212;BME280;46079;48.686;15.598;2022-11-20T07:06:01;99539.34;;;18.69;50.39
60212;BME280;46079;48.686;15.598;2022-11-20T07:08:27;99547.09;;;18.71;50.07
60212;BME280;46079;48.686;15.598;2022-11-20T07:10:57;99541.97;;;18.69;50.20
60212;BME280;46079;48.686;15.598;2022-11-20T07:13:22;99548.84;;;18.70;50.40
60212;BME280;46079;48.686;15.598;2022-11-20T07:15:48;99552.34;;;18.71;50.27
60212;BME280;46079;48.686;15.598;2022-11-20T07:18:13;99562.81;;;18.71;50.30
60212;BME280;46079;48.686;15.598;2022-11-20T07:20:41;99563.63;;;18.71;50.20
60212;BME280;46079;48.686;15.598;2022-11-20T07:23:06;99551.47;;;18.70;50.13
60212;BME280;46079;48.686;15.598;2022-11-20T07:25:32;99548.75;;;18.72;50.48
60212;BME280;46079;48.686;15.598;2022-11-20T07:27:58;99558.53;;;18.70;50.25
60212;BME280;46079;48.686;15.598;2022-11-20T07:30:24;99551.47;;;18.70;50.30
60212;BME280;46079;48.686;15.598;2022-11-20T07:32:54;99551.34;;;18.72;50.12
60212;BME280;46079;48.686;15.598;2022-11-20T07:35:21;99559.22;;;18.72;50.23
60212;BME280;46079;48.686;15.598;2022-11-20T07:37:47;99559.22;;;18.72;50.25
60212;BME280;46079;48.686;15.598;2022-11-20T07:40:14;99556.59;;;18.72;50.18
60212;BME280;46079;48.686;15.598;2022-11-20T07:42:47;99553.97;;;18.72;50.30
60212;BME280;46079;48.686;15.598;2022-11-20T07:45:13;99561.84;;;18.72;50.19
60212;BME280;46079;48.686;15.598;2022-11-20T07:47:38;99567.06;;;18.72;50.44
60212;BME280;46079;48.686;15.598;2022-11-20T07:50:04;99563.63;;;18.71;50.20
60212;BME280;46079;48.686;15.598;2022-11-20T07:52:29;99568.88;;;18.71;50.19
60212;BME280;46079;48.686;15.598;2022-11-20T07:54:55;99570.53;;;18.72;50.57
60212;BME280;46079;48.686;15.598;2022-11-20T07:57:20;99566.09;;;18.73;50.29
60212;BME280;46079;48.686;15.598;2022-11-20T07:59:46;99569.69;;;18.72;50.12
60212;BME280;46079;48.686;15.598;2022-11-20T08:02:11;99570.53;;;18.72;50.28
60212;BME280;46079;48.686;15.598;2022-11-20T08:04:36;99571.34;;;18.73;50.29
60212;BME280;46079;48.686;15.598;2022-11-20T08:07:02;99570.53;;;18.72;50.12
60212;BME280;46079;48.686;15.598;2022-11-20T08:09:27;99560.03;;;18.72;50.31
60212;BME280;46079;48.686;15.598;2022-11-20T08:11:54;99568.72;;;18.73;50.15
60212;BME280;46079;48.686;15.598;2022-11-20T08:14:38;99568.72;;;18.73;50.19
60212;BME280;46079;48.686;15.598;2022-11-20T08:17:04;99566.09;;;18.73;50.12
60212;BME280;46079;48.686;15.598;2022-11-20T08:19:29;99566.09;;;18.73;50.12
60212;BME280;46079;48.686;15.598;2022-11-20T08:21:55;99563.47;;;18.73;50.24
60212;BME280;46079;48.686;15.598;2022-11-20T08:24:20;99570.53;;;18.72;50.16
60212;BME280;46079;48.686;15.598;2022-11-20T08:26:45;99570.53;;;18.72;50.16
60212;BME280;46079;48.686;15.598;2022-11-20T08:29:11;99566.09;;;18.73;50.08
60212;BME280;46079;48.686;15.598;2022-11-20T08:31:37;99567.91;;;18.72;50.03
60212;BME280;46079;48.686;15.598;2022-11-20T08:34:03;99565.28;;;18.72;50.39
60212;BME280;46079;48.686;15.598;2022-11-20T08:36:28;99567.06;;;18.72;50.29
60212;BME280;46079;48.686;15.598;2022-11-20T08:38:55;99570.53;;;18.72;50.30
60212;BME280;46079;48.686;15.598;2022-11-20T08:41:21;99571.34;;;18.73;50.31
60212;BME280;46079;48.686;15.598;2022-11-20T08:43:52;99574.94;;;18.72;50.22
60212;BME280;46079;48.686;15.598;2022-11-20T08:46:18;99568.72;;;18.73;50.18
60212;BME280;46079;48.686;15.598;2022-11-20T08:48:44;99570.53;;;18.72;50.17
60212;BME280;46079;48.686;15.598;2022-11-20T08:51:10;99572.19;;;18.73;50.18
60212;BME280;46079;48.686;15.598;2022-11-20T08:53:37;99573.97;;;18.73;50.30
60212;BME280;46079;48.686;15.598;2022-11-20T08:56:02;99570.53;;;18.72;49.96
60212;BME280;46079;48.686;15.598;2022-11-20T08:58:28;99566.09;;;18.73;50.01
60212;BME280;46079;48.686;15.598;2022-11-20T09:00:53;99567.78;;;18.74;50.08
60212;BME280;46079;48.686;15.598;2022-11-20T09:03:19;99562.53;;;18.74;50.23
60212;BME280;46079;48.686;15.598;2022-11-20T09:05:44;99566.09;;;18.73;50.24
60212;BME280;46079;48.686;15.598;2022-11-20T09:08:10;99573.03;;;18.74;50.16
60212;BME280;46079;48.686;15.598;2022-11-20T09:10:35;99565.16;;;18.74;50.10
60212;BME280;46079;48.686;15.598;2022-11-20T09:13:01;99563.47;;;18.73;50.09
60212;BME280;46079;48.686;15.598;2022-11-20T09:15:27;99558.25;;;18.73;50.09
60212;BME280;46079;48.686;15.598;2022-11-20T09:17:58;99566.97;;;18.73;50.22
60212;BME280;46079;48.686;15.598;2022-11-20T09:20:24;99561.72;;;18.73;50.29
60212;BME280;46079;48.686;15.598;2022-11-20T09:22:50;99559.91;;;18.74;50.29
60212;BME280;46079;48.686;15.598;2022-11-20T09:25:16;99552.19;;;18.72;50.08
60212;BME280;46079;48.686;15.598;2022-11-20T09:27:41;99559.91;;;18.74;50.33
60212;BME280;46079;48.686;15.598;2022-11-20T09:30:09;99554.81;;;18.72;50.33
60212;BME280;46079;48.686;15.598;2022-11-20T09:32:35;99566.09;;;18.73;50.03
60212;BME280;46079;48.686;15.598;2022-11-20T09:35:01;99565.16;;;18.74;50.22
60212;BME280;46079;48.686;15.598;2022-11-20T09:37:27;99553.00;;;18.73;50.17
60212;BME280;46079;48.686;15.598;2022-11-20T09:39:52;99547.75;;;18.73;50.18
60212;BME280;46079;48.686;15.598;2022-11-20T09:42:38;99543.50;;;18.72;50.26
60212;BME280;46079;48.686;15.598;2022-11-20T09:45:22;99551.25;;;18.73;50.21
60212;BME280;46079;48.686;15.598;2022-11-20T09:50:32;99550.38;;;18.73;50.05
60212;BME280;46079;48.686;15.598;2022-11-20T09:53:08;99541.69;;;18.72;50.05
60212;BME280;46079;48.686;15.598;2022-11-20T09:55:36;99550.38;;;18.73;50.16
60212;BME280;46079;48.686;15.598;2022-11-20T09:58:06;99550.38;;;18.73;50.29
60212;BME280;46079;48.686;15.598;2022-11-20T10:00:34;99545.16;;;18.73;50.07
60212;BME280;46079;48.686;15.598;2022-11-20T10:03:22;99535.63;;;18.72;50.24
60212;BME280;46079;48.686;15.598;2022-11-20T10:05:54;99529.41;;;18.73;50.15
60212;BME280;46079;48.686;15.598;2022-11-20T10:11:04;99525.97;;;18.72;49.88
60212;BME280;46079;48.686;15.598;2022-11-20T10:19:03;99531.22;;;18.72;50.11
60212;BME280;46079;48.686;15.598;2022-11-20T10:24:48;99523.38;;;18.72;49.88
60212;BME280;46079;48.686;15.598;2022-11-20T10:32:42;99512.88;;;18.72;50.32
60212;BME280;46079;48.686;15.598;2022-11-20T10:35:20;99513.03;;;18.71;50.13
60212;BME280;46079;48.686;15.598;2022-11-20T10:37:52;99514.81;;;18.70;50.05
60212;BME280;46079;48.686;15.598;2022-11-20T10:40:41;99519.09;;;18.71;50.12
60212;BME280;46079;48.686;15.598;2022-11-20T10:43:13;99515.66;;;18.71;50.06
60212;BME280;46079;48.686;15.598;2022-11-20T10:45:47;99513.84;;;18.71;49.97
60212;BME280;46079;48.686;15.598;2022-11-20T10:48:24;99517.31;;;18.72;50.05
60212;BME280;46079;48.686;15.598;2022-11-20T10:51:18;99516.47;;;18.71;50.04
60212;BME280;46079;48.686;15.598;2022-11-20T10:56:42;99504.19;;;18.72;50.22
60212;BME280;46079;48.686;15.598;2022-11-20T11:01:46;99494.69;;;18.71;50.17
60212;BME280;46079;48.686;15.598;2022-11-20T11:04:37;99494.69;;;18.71;49.85
60212;BME280;46079;48.686;15.598;2022-11-20T11:07:13;99493.72;;;18.72;50.16
60212;BME280;46079;48.686;15.598;2022-11-20T11:09:48;99494.69;;;18.71;49.97
60212;BME280;46079;48.686;15.598;2022-11-20T11:12:14;99489.47;;;18.71;50.00
60212;BME280;46079;48.686;15.598;2022-11-20T11:14:51;99489.47;;;18.71;50.07
60212;BME280;46079;48.686;15.598;2022-11-20T11:17:21;99487.66;;;18.71;50.10
60212;BME280;46079;48.686;15.598;2022-11-20T11:19:57;99487.66;;;18.71;50.08
60212;BME280;46079;48.686;15.598;2022-11-20T11:22:23;99483.25;;;18.72;50.01
60212;BME280;46079;48.686;15.598;2022-11-20T11:24:52;99479.81;;;18.71;50.20
60212;BME280;46079;48.686;15.598;2022-11-20T11:27:18;99485.03;;;18.71;50.12
60212;BME280;46079;48.686;15.598;2022-11-20T11:29:44;99479.81;;;18.71;49.99
60212;BME280;46079;48.686;15.598;2022-11-20T11:32:21;99482.41;;;18.71;50.12
60212;BME280;46079;48.686;15.598;2022-11-20T11:35:11;99472.88;;;18.70;49.97
60212;BME280;46079;48.686;15.598;2022-11-20T11:37:44;99474.56;;;18.71;50.02
60212;BME280;46079;48.686;15.598;2022-11-20T11:40:12;99466.81;;;18.70;50.14
60212;BME280;46079;48.686;15.598;2022-11-20T11:42:54;99478.13;;;18.70;50.04
60212;BME280;46079;48.686;15.598;2022-11-20T11:45:22;99473.75;;;18.71;49.91
60212;BME280;46079;48.686;15.598;2022-11-20T11:47:48;99468.50;;;18.71;49.99
60212;BME280;46079;48.686;15.598;2022-11-20T11:50:23;99474.69;;;18.70;49.95
60212;BME280;46079;48.686;15.598;2022-11-20T11:55:42;99466.81;;;18.70;49.96
60212;BME280;46079;48.686;15.598;2022-11-20T12:04:39;99445.88;;;18.70;49.87
60212;BME280;46079;48.686;15.598;2022-11-20T12:06:38;99446.69;;;18.70;50.06
60212;BME280;46079;48.686;15.598;2022-11-20T12:09:09;99441.44;;;18.70;50.02
60212;BME280;46079;48.686;15.598;2022-11-20T12:11:45;99445.88;;;18.70;50.10
60212;BME280;46079;48.686;15.598;2022-11-20T12:14:32;99457.16;;;18.70;49.93
60212;BME280;46079;48.686;15.598;2022-11-20T12:17:00;99446.56;;;18.72;50.02
60212;BME280;46079;48.686;15.598;2022-11-20T12:19:29;99444.06;;;18.70;49.82
60212;BME280;46079;48.686;15.598;2022-11-20T12:30:19;99445.88;;;18.70;50.09
60212;BME280;46079;48.686;15.598;2022-11-20T12:50:38;99436.22;;;18.70;49.98
60212;BME280;46079;48.686;15.598;2022-11-20T12:55:50;99429.31;;;18.69;50.04
60212;BME280;46079;48.686;15.598;2022-11-20T13:01:40;99431.13;;;18.69;50.13
60212;BME280;46079;48.686;15.598;2022-11-20T13:06:50;99429.44;;;18.67;50.14
60212;BME280;46079;48.686;15.598;2022-11-20T13:09:19;99428.50;;;18.69;50.06
60212;BME280;46079;48.686;15.598;2022-11-20T13:12:06;99422.44;;;18.68;50.12
60212;BME280;46079;48.686;15.598;2022-11-20T13:14:40;99418.03;;;18.69;50.05
60212;BME280;46079;48.686;15.598;2022-11-20T13:19:56;99406.72;;;18.68;50.05
60212;BME280;46079;48.686;15.598;2022-11-20T13:22:28;99412.78;;;18.69;50.13
60212;BME280;46079;48.686;15.598;2022-11-20T13:24:54;99406.72;;;18.68;50.26
60212;BME280;46079;48.686;15.598;2022-11-20T13:27:21;99411.97;;;18.68;50.24
60212;BME280;46079;48.686;15.598;2022-11-20T13:30:14;99408.50;;;18.67;50.19
60212;BME280;46079;48.686;15.598;2022-11-20T13:38:23;99402.44;;;18.67;50.20
60212;BME280;46079;48.686;15.598;2022-11-20T13:41:00;99405.22;;;18.65;50.10
60212;BME280;46079;48.686;15.598;2022-11-20T13:43:49;99403.41;;;18.66;50.20
60212;BME280;46079;48.686;15.598;2022-11-20T13:46:15;99393.75;;;18.66;50.11
60212;BME280;46079;48.686;15.598;2022-11-20T13:48:43;99397.34;;;18.65;50.00
60212;BME280;46079;48.686;15.598;2022-11-20T14:00:09;99388.66;;;18.65;49.99
60212;BME280;46079;48.686;15.598;2022-11-20T14:02:37;99396.53;;;18.65;50.16
60212;BME280;46079;48.686;15.598;2022-11-20T14:05:04;99389.63;;;18.64;50.36
60212;BME280;46079;48.686;15.598;2022-11-20T14:07:39;99382.72;;;18.63;50.04
60212;BME280;46079;48.686;15.598;2022-11-20T14:10:22;99378.31;;;18.63;50.30
60212;BME280;46079;48.686;15.598;2022-11-20T14:12:48;99375.69;;;18.63;50.13
60212;BME280;46079;48.686;15.598;2022-11-20T14:15:31;99370.59;;;18.62;50.18
60212;BME280;46079;48.686;15.598;2022-11-20T14:17:57;99370.47;;;18.63;50.36
60212;BME280;46079;48.686;15.598;2022-11-20T14:20:30;99363.56;;;18.62;50.21
60212;BME280;46079;48.686;15.598;2022-11-20T14:22:59;99367.84;;;18.63;50.18
60212;BME280;46079;48.686;15.598;2022-11-20T14:25:25;99374.88;;;18.63;50.40
60212;BME280;46079;48.686;15.598;2022-11-20T14:27:59;99367.03;;;18.63;50.16